sensor_id;sensor_type;location;lat;lon;timestamp;pressure;altitude;pressure_sealevel;temperature;humidity
60479;BME280;46321;48.398;11.754;2023-02-15T00:00:03;98039.66;;;-1.56;93.19
60479;BME280;46321;48.398;11.754;2023-02-15T00:02:30;98046.84;;;-1.63;93.07
60479;BME280;46321;48.398;11.754;2023-02-15T00:04:55;98046.59;;;-1.56;92.66
60479;BME280;46321;48.398;11.754;2023-02-15T00:07:21;98037.91;;;-1.55;92.68
60479;BME280;46321;48.398;11.754;2023-02-15T00:09:47;98034.53;;;-1.57;92.68
60479;BME280;46321;48.398;11.754;2023-02-15T00:12:14;98036.38;;;-1.61;92.65
60479;BME280;46321;48.398;11.754;2023-02-15T00:14:39;98033.84;;;-1.63;92.90
60479;BME280;46321;48.398;11.754;2023-02-15T00:17:05;98027.88;;;-1.65;92.93
60479;BME280;46321;48.398;11.754;2023-02-15T00:19:30;98037.22;;;-1.61;92.86
60479;BME280;46321;48.398;11.754;2023-02-15T00:21:55;98030.56;;;-1.68;93.49
60479;BME280;46321;48.398;11.754;2023-02-15T00:24:21;98029.75;;;-1.68;93.16
60479;BME280;46321;48.398;11.754;2023-02-15T00:26:46;98017.31;;;-1.60;93.33
60479;BME280;46321;48.398;11.754;2023-02-15T00:29:13;98026.25;;;-1.67;92.94
60479;BME280;46321;48.398;11.754;2023-02-15T00:31:39;98019.47;;;-1.94;94.47
60479;BME280;46321;48.398;11.754;2023-02-15T00:34:07;98017.13;;;-1.78;94.40
60479;BME280;46321;48.398;11.754;2023-02-15T00:36:32;98014.19;;;-1.68;94.04
60479;BME280;46321;48.398;11.754;2023-02-15T00:38:58;98014.03;;;-1.65;93.82
60479;BME280;46321;48.398;11.754;2023-02-15T00:41:23;98009.94;;;-1.71;93.50
60479;BME280;46321;48.398;11.754;2023-02-15T00:43:49;98012.22;;;-1.86;93.67
60479;BME280;46321;48.398;11.754;2023-02-15T00:46:14;98020.25;;;-1.92;94.27
60479;BME280;46321;48.398;11.754;2023-02-15T00:48:39;98018.13;;;-2.04;94.94
60479;BME280;46321;48.398;11.754;2023-02-15T00:51:04;98021.44;;;-2.01;94.11
60479;BME280;46321;48.398;11.754;2023-02-15T00:53:30;98009.00;;;-2.39;95.77
60479;BME280;46321;48.398;11.754;2023-02-15T00:55:56;97999.50;;;-2.16;95.17
60479;BME280;46321;48.398;11.754;2023-02-15T00:58:22;98005.31;;;-2.09;94.79
60479;BME280;46321;48.398;11.754;2023-02-15T01:00:47;98005.72;;;-2.20;95.60
60479;BME280;46321;48.398;11.754;2023-02-15T01:03:15;98010.41;;;-2.30;95.90
60479;BME280;46321;48.398;11.754;2023-02-15T01:05:40;98010.69;;;-2.38;96.87
60479;BME280;46321;48.398;11.754;2023-02-15T01:08:06;98007.53;;;-2.22;96.41
60479;BME280;46321;48.398;11.754;2023-02-15T01:10:31;97998.56;;;-2.13;95.88
60479;BME280;46321;48.398;11.754;2023-02-15T01:12:58;97995.09;;;-2.14;96.27
60479;BME280;46321;48.398;11.754;2023-02-15T01:15:23;97997.00;;;-2.17;95.51
60479;BME280;46321;48.398;11.754;2023-02-15T01:17:49;97996.91;;;-2.16;96.02
60479;BME280;46321;48.398;11.754;2023-02-15T01:20:24;97992.41;;;-2.11;95.63
60479;BME280;46321;48.398;11.754;2023-02-15T01:22:50;97985.28;;;-2.05;95.23
60479;BME280;46321;48.398;11.754;2023-02-15T01:25:17;97981.91;;;-2.08;95.08
60479;BME280;46321;48.398;11.754;2023-02-15T01:27:43;97980.94;;;-2.05;95.55
60479;BME280;46321;48.398;11.754;2023-02-15T01:30:09;97975.69;;;-2.03;95.21
60479;BME280;46321;48.398;11.754;2023-02-15T01:32:35;97978.22;;;-2.02;95.43
60479;BME280;46321;48.398;11.754;2023-02-15T01:35:01;97975.41;;;-1.96;95.01
60479;BME280;46321;48.398;11.754;2023-02-15T01:37:26;97972.72;;;-1.94;94.77
60479;BME280;46321;48.398;11.754;2023-02-15T01:39:51;97975.41;;;-1.96;95.00
60479;BME280;46321;48.398;11.754;2023-02-15T01:42:24;97972.91;;;-1.99;94.80
60479;BME280;46321;48.398;11.754;2023-02-15T01:45:04;97967.47;;;-1.92;94.70
60479;BME280;46321;48.398;11.754;2023-02-15T01:47:52;97963.13;;;-1.92;94.28
60479;BME280;46321;48.398;11.754;2023-02-15T01:50:47;97957.59;;;-1.82;94.33
60479;BME280;46321;48.398;11.754;2023-02-15T01:53:18;97960.09;;;-1.81;94.22
60479;BME280;46321;48.398;11.754;2023-02-15T01:55:53;97953.28;;;-2.06;94.46
60479;BME280;46321;48.398;11.754;2023-02-15T01:58:21;97945.56;;;-2.08;95.05
60479;BME280;46321;48.398;11.754;2023-02-15T02:00:47;97948.84;;;-2.02;94.75
60479;BME280;46321;48.398;11.754;2023-02-15T02:03:12;97942.19;;;-2.10;95.03
60479;BME280;46321;48.398;11.754;2023-02-15T02:05:39;97949.19;;;-2.12;94.67
60479;BME280;46321;48.398;11.754;2023-02-15T02:08:06;97932.84;;;-2.14;94.70
60479;BME280;46321;48.398;11.754;2023-02-15T02:10:32;97930.78;;;-2.05;94.72
60479;BME280;46321;48.398;11.754;2023-02-15T02:13:00;97923.53;;;-1.97;94.59
60479;BME280;46321;48.398;11.754;2023-02-15T02:15:38;97918.34;;;-1.97;94.68
60479;BME280;46321;48.398;11.754;2023-02-15T02:18:20;97918.13;;;-1.91;94.36
60479;BME280;46321;48.398;11.754;2023-02-15T02:20:59;97920.56;;;-1.88;94.45
60479;BME280;46321;48.398;11.754;2023-02-15T02:23:32;97933.34;;;-2.04;94.62
60479;BME280;46321;48.398;11.754;2023-02-15T02:28:54;97937.00;;;-1.87;94.18
60479;BME280;46321;48.398;11.754;2023-02-15T02:36:45;97930.69;;;-1.81;93.93
60479;BME280;46321;48.398;11.754;2023-02-15T02:39:30;97933.97;;;-1.76;93.85
60479;BME280;46321;48.398;11.754;2023-02-15T02:42:05;97927.53;;;-1.88;93.90
60479;BME280;46321;48.398;11.754;2023-02-15T02:44:40;97926.31;;;-1.79;93.75
60479;BME280;46321;48.398;11.754;2023-02-15T02:47:44;97922.72;;;-1.77;93.48
60479;BME280;46321;48.398;11.754;2023-02-15T02:50:24;97918.63;;;-1.82;94.05
60479;BME280;46321;48.398;11.754;2023-02-15T02:52:52;97911.75;;;-1.84;94.20
60479;BME280;46321;48.398;11.754;2023-02-15T02:55:22;97908.97;;;-1.79;93.97
60479;BME280;46321;48.398;11.754;2023-02-15T02:57:55;97912.41;;;-1.78;93.34
60479;BME280;46321;48.398;11.754;2023-02-15T03:00:24;97903.78;;;-1.79;93.61
60479;BME280;46321;48.398;11.754;2023-02-15T03:02:55;97903.59;;;-1.74;93.47
60479;BME280;46321;48.398;11.754;2023-02-15T03:05:25;97905.66;;;-1.82;93.97
60479;BME280;46321;48.398;11.754;2023-02-15T03:07:53;97912.16;;;-1.72;93.57
60479;BME280;46321;48.398;11.754;2023-02-15T03:10:23;97915.53;;;-1.70;93.54
60479;BME280;46321;48.398;11.754;2023-02-15T03:12:49;97922.03;;;-1.80;94.10
60479;BME280;46321;48.398;11.754;2023-02-15T03:15:23;97918.03;;;-1.89;93.86
60479;BME280;46321;48.398;11.754;2023-02-15T03:17:55;97912.91;;;-1.91;93.89
60479;BME280;46321;48.398;11.754;2023-02-15T03:20:26;97911.28;;;-1.93;93.89
60479;BME280;46321;48.398;11.754;2023-02-15T03:22:59;97909.97;;;-2.04;94.14
60479;BME280;46321;48.398;11.754;2023-02-15T03:25:41;97910.44;;;-1.94;93.87
60479;BME280;46321;48.398;11.754;2023-02-15T03:28:11;97909.72;;;-1.98;93.68
60479;BME280;46321;48.398;11.754;2023-02-15T03:30:39;97904.72;;;-2.02;93.58
60479;BME280;46321;48.398;11.754;2023-02-15T03:33:08;97905.50;;;-2.00;93.63
60479;BME280;46321;48.398;11.754;2023-02-15T03:35:40;97906.09;;;-1.93;93.33
60479;BME280;46321;48.398;11.754;2023-02-15T03:38:10;97911.16;;;-2.13;93.37
60479;BME280;46321;48.398;11.754;2023-02-15T03:40:41;97912.97;;;-2.15;93.76
60479;BME280;46321;48.398;11.754;2023-02-15T03:43:54;97913.88;;;-2.16;93.92
60479;BME280;46321;48.398;11.754;2023-02-15T03:46:50;97928.34;;;-2.10;93.62
60479;BME280;46321;48.398;11.754;2023-02-15T03:49:27;97922.38;;;-2.12;93.55
60479;BME280;46321;48.398;11.754;2023-02-15T03:51:56;97930.13;;;-2.11;93.67
60479;BME280;46321;48.398;11.754;2023-02-15T03:54:27;97921.13;;;-2.02;92.91
60479;BME280;46321;48.398;11.754;2023-02-15T03:57:22;97928.72;;;-1.97;93.12
60479;BME280;46321;48.398;11.754;2023-02-15T04:00:24;97921.19;;;-2.03;92.84
60479;BME280;46321;48.398;11.754;2023-02-15T04:05:40;97922.72;;;-2.22;93.54
60479;BME280;46321;48.398;11.754;2023-02-15T04:08:06;97924.09;;;-2.11;93.67
60479;BME280;46321;48.398;11.754;2023-02-15T04:10:31;97912.75;;;-2.09;93.23
60479;BME280;46321;48.398;11.754;2023-02-15T04:13:15;97921.19;;;-2.03;93.03
60479;BME280;46321;48.398;11.754;2023-02-15T04:15:40;97926.31;;;-2.02;92.93
60479;BME280;46321;48.398;11.754;2023-02-15T04:18:24;97924.69;;;-2.04;92.84
60479;BME280;46321;48.398;11.754;2023-02-15T04:21:08;97917.69;;;-2.02;93.10
60479;BME280;46321;48.398;11.754;2023-02-15T04:23:52;97909.84;;;-2.01;92.83
60479;BME280;46321;48.398;11.754;2023-02-15T04:26:36;97908.16;;;-2.02;92.42
60479;BME280;46321;48.398;11.754;2023-02-15T04:29:01;97918.22;;;-1.94;92.52
60479;BME280;46321;48.398;11.754;2023-02-15T04:31:26;97912.91;;;-1.91;92.52
60479;BME280;46321;48.398;11.754;2023-02-15T04:33:51;97906.19;;;-1.97;92.44
60479;BME280;46321;48.398;11.754;2023-02-15T04:36:16;97906.16;;;-1.95;92.39
60479;BME280;46321;48.398;11.754;2023-02-15T04:38:42;97906.88;;;-1.91;92.34
60479;BME280;46321;48.398;11.754;2023-02-15T04:41:07;97904.38;;;-1.94;92.22
60479;BME280;46321;48.398;11.754;2023-02-15T04:43:32;97914.66;;;-1.91;91.77
60479;BME280;46321;48.398;11.754;2023-02-15T04:45:58;97913.13;;;-1.97;91.80
60479;BME280;46321;48.398;11.754;2023-02-15T04:48:23;97914.72;;;-1.93;91.66
60479;BME280;46321;48.398;11.754;2023-02-15T04:50:49;97907.06;;;-1.96;91.38
60479;BME280;46321;48.398;11.754;2023-02-15T04:53:14;97908.81;;;-1.97;91.35
60479;BME280;46321;48.398;11.754;2023-02-15T04:55:41;97911.41;;;-2.19;91.89
60479;BME280;46321;48.398;11.754;2023-02-15T04:58:06;97903.16;;;-2.29;92.14
60479;BME280;46321;48.398;11.754;2023-02-15T05:00:32;97911.16;;;-2.35;92.17
60479;BME280;46321;48.398;11.754;2023-02-15T05:02:57;97912.06;;;-2.36;92.39
60479;BME280;46321;48.398;11.754;2023-02-15T05:05:22;97915.97;;;-2.26;91.90
60479;BME280;46321;48.398;11.754;2023-02-15T05:07:47;97911.41;;;-2.19;91.54
60479;BME280;46321;48.398;11.754;2023-02-15T05:10:13;97914.13;;;-2.22;91.59
60479;BME280;46321;48.398;11.754;2023-02-15T05:12:38;97908.63;;;-2.14;91.26
60479;BME280;46321;48.398;11.754;2023-02-15T05:15:03;97917.25;;;-2.14;91.30
60479;BME280;46321;48.398;11.754;2023-02-15T05:17:29;97921.53;;;-2.13;91.14
60479;BME280;46321;48.398;11.754;2023-02-15T05:19:54;97921.00;;;-2.21;91.31
60479;BME280;46321;48.398;11.754;2023-02-15T05:22:19;97920.53;;;-2.31;91.71
60479;BME280;46321;48.398;11.754;2023-02-15T05:24:44;97925.75;;;-2.33;91.77
60479;BME280;46321;48.398;11.754;2023-02-15T05:27:28;97926.31;;;-2.24;91.61
60479;BME280;46321;48.398;11.754;2023-02-15T05:30:12;97928.13;;;-2.26;91.67
60479;BME280;46321;48.398;11.754;2023-02-15T05:32:38;97930.69;;;-2.49;91.71
60479;BME280;46321;48.398;11.754;2023-02-15T05:35:05;97923.56;;;-2.44;91.91
60479;BME280;46321;48.398;11.754;2023-02-15T05:37:31;97922.72;;;-2.44;92.36
60479;BME280;46321;48.398;11.754;2023-02-15T05:39:56;97922.38;;;-2.35;91.97
60479;BME280;46321;48.398;11.754;2023-02-15T05:42:21;97921.34;;;-2.31;92.08
60479;BME280;46321;48.398;11.754;2023-02-15T05:44:46;97918.63;;;-2.27;92.06
60479;BME280;46321;48.398;11.754;2023-02-15T05:47:12;97926.19;;;-2.21;91.64
60479;BME280;46321;48.398;11.754;2023-02-15T05:49:37;97924.38;;;-2.19;91.73
60479;BME280;46321;48.398;11.754;2023-02-15T05:52:03;97929.44;;;-2.16;91.64
60479;BME280;46321;48.398;11.754;2023-02-15T05:54:28;97933.84;;;-2.18;91.94
60479;BME280;46321;48.398;11.754;2023-02-15T05:56:53;97923.47;;;-2.18;91.49
60479;BME280;46321;48.398;11.754;2023-02-15T05:59:19;97930.31;;;-2.15;91.67
60479;BME280;46321;48.398;11.754;2023-02-15T06:01:44;97929.31;;;-2.13;91.65
60479;BME280;46321;48.398;11.754;2023-02-15T06:04:09;97928.78;;;-2.21;91.64
60479;BME280;46321;48.398;11.754;2023-02-15T06:06:34;97938.84;;;-2.36;92.15
60479;BME280;46321;48.398;11.754;2023-02-15T06:09:00;97939.50;;;-2.31;92.02
60479;BME280;46321;48.398;11.754;2023-02-15T06:11:25;97937.47;;;-2.22;91.83
60479;BME280;46321;48.398;11.754;2023-02-15T06:13:50;97939.75;;;-2.37;92.07
60479;BME280;46321;48.398;11.754;2023-02-15T06:16:16;97939.34;;;-2.50;92.43
60479;BME280;46321;48.398;11.754;2023-02-15T06:18:41;97925.38;;;-2.46;92.54
60479;BME280;46321;48.398;11.754;2023-02-15T06:21:06;97927.66;;;-2.60;92.53
60479;BME280;46321;48.398;11.754;2023-02-15T06:23:32;97936.31;;;-2.61;92.46
60479;BME280;46321;48.398;11.754;2023-02-15T06:25:57;97944.53;;;-2.50;92.67
60479;BME280;46321;48.398;11.754;2023-02-15T06:28:22;97946.25;;;-2.49;92.45
60479;BME280;46321;48.398;11.754;2023-02-15T06:30:50;97950.81;;;-2.56;92.38
60479;BME280;46321;48.398;11.754;2023-02-15T06:33:15;97947.06;;;-2.48;92.30
60479;BME280;46321;48.398;11.754;2023-02-15T06:35:40;97949.78;;;-2.51;92.25
60479;BME280;46321;48.398;11.754;2023-02-15T06:38:06;97959.00;;;-2.44;92.49
60479;BME280;46321;48.398;11.754;2023-02-15T06:40:31;97960.22;;;-2.53;92.82
60479;BME280;46321;48.398;11.754;2023-02-15T06:42:56;97953.50;;;-2.59;92.99
60479;BME280;46321;48.398;11.754;2023-02-15T06:45:21;97963.47;;;-2.48;92.59
60479;BME280;46321;48.398;11.754;2023-02-15T06:47:47;97954.13;;;-2.52;92.76
60479;BME280;46321;48.398;11.754;2023-02-15T06:50:12;97967.81;;;-2.48;92.49
60479;BME280;46321;48.398;11.754;2023-02-15T06:52:37;97972.22;;;-2.74;92.82
60479;BME280;46321;48.398;11.754;2023-02-15T06:55:03;97968.59;;;-2.70;92.98
60479;BME280;46321;48.398;11.754;2023-02-15T06:57:28;97959.19;;;-2.73;92.87
60479;BME280;46321;48.398;11.754;2023-02-15T06:59:53;97962.19;;;-2.60;92.79
60479;BME280;46321;48.398;11.754;2023-02-15T07:02:19;97967.00;;;-2.49;92.53
60479;BME280;46321;48.398;11.754;2023-02-15T07:04:44;97959.00;;;-2.44;92.12
60479;BME280;46321;48.398;11.754;2023-02-15T07:07:11;97961.69;;;-2.46;92.38
60479;BME280;46321;48.398;11.754;2023-02-15T07:09:37;97960.16;;;-2.51;92.67
60479;BME280;46321;48.398;11.754;2023-02-15T07:12:02;97958.75;;;-2.60;92.85
60479;BME280;46321;48.398;11.754;2023-02-15T07:14:46;97948.78;;;-2.47;92.32
60479;BME280;46321;48.398;11.754;2023-02-15T07:17:11;97953.84;;;-2.44;92.17
60479;BME280;46321;48.398;11.754;2023-02-15T07:19:37;97957.09;;;-2.39;92.23
60479;BME280;46321;48.398;11.754;2023-02-15T07:22:02;97958.91;;;-2.41;91.80
60479;BME280;46321;48.398;11.754;2023-02-15T07:24:29;97961.91;;;-2.52;92.37
60479;BME280;46321;48.398;11.754;2023-02-15T07:26:54;97948.06;;;-2.51;92.75
60479;BME280;46321;48.398;11.754;2023-02-15T07:29:19;97957.25;;;-2.42;92.06
60479;BME280;46321;48.398;11.754;2023-02-15T07:31:44;97950.44;;;-2.46;92.36
60479;BME280;46321;48.398;11.754;2023-02-15T07:34:10;97941.16;;;-2.52;92.38
60479;BME280;46321;48.398;11.754;2023-02-15T07:36:35;97949.00;;;-2.54;92.43
60479;BME280;46321;48.398;11.754;2023-02-15T07:39:01;97940.44;;;-2.56;92.64
60479;BME280;46321;48.398;11.754;2023-02-15T07:41:26;97944.44;;;-2.47;92.09
60479;BME280;46321;48.398;11.754;2023-02-15T07:43:51;97949.31;;;-2.39;91.87
60479;BME280;46321;48.398;11.754;2023-02-15T07:46:17;97948.31;;;-2.35;91.98
60479;BME280;46321;48.398;11.754;2023-02-15T07:48:44;97947.84;;;-2.46;92.16
60479;BME280;46321;48.398;11.754;2023-02-15T07:51:11;97946.72;;;-2.39;92.40
60479;BME280;46321;48.398;11.754;2023-02-15T07:53:37;97943.59;;;-2.47;92.18
60479;BME280;46321;48.398;11.754;2023-02-15T07:56:05;97951.03;;;-2.38;92.16
60479;BME280;46321;48.398;11.754;2023-02-15T07:58:32;97955.31;;;-2.37;92.46
60479;BME280;46321;48.398;11.754;2023-02-15T08:01:17;97946.63;;;-2.36;92.60
60479;BME280;46321;48.398;11.754;2023-02-15T08:03:43;97951.19;;;-2.43;92.86
60479;BME280;46321;48.398;11.754;2023-02-15T08:06:08;97951.81;;;-2.36;92.63
60479;BME280;46321;48.398;11.754;2023-02-15T08:08:34;97952.38;;;-2.27;92.20
60479;BME280;46321;48.398;11.754;2023-02-15T08:11:17;97950.66;;;-2.28;92.60
60479;BME280;46321;48.398;11.754;2023-02-15T08:13:58;97951.25;;;-2.20;92.22
60479;BME280;46321;48.398;11.754;2023-02-15T08:18:56;97942.97;;;-2.08;92.14
60479;BME280;46321;48.398;11.754;2023-02-15T08:21:23;97942.78;;;-2.03;91.49
60479;BME280;46321;48.398;11.754;2023-02-15T08:23:49;97944.16;;;-2.16;91.75
60479;BME280;46321;48.398;11.754;2023-02-15T08:26:14;97945.56;;;-2.08;92.18
60479;BME280;46321;48.398;11.754;2023-02-15T08:28:41;97948.28;;;-2.11;92.10
60479;BME280;46321;48.398;11.754;2023-02-15T08:31:09;97943.88;;;-2.09;92.21
60479;BME280;46321;48.398;11.754;2023-02-15T08:33:36;97941.94;;;-2.03;92.08
60479;BME280;46321;48.398;11.754;2023-02-15T08:36:07;97943.47;;;-1.98;91.72
60479;BME280;46321;48.398;11.754;2023-02-15T08:38:33;97935.59;;;-1.96;91.42
60479;BME280;46321;48.398;11.754;2023-02-15T08:43:36;97936.88;;;-2.07;91.19
60479;BME280;46321;48.398;11.754;2023-02-15T08:46:01;97942.44;;;-1.93;91.28
60479;BME280;46321;48.398;11.754;2023-02-15T08:48:27;97937.78;;;-2.08;91.66
60479;BME280;46321;48.398;11.754;2023-02-15T08:50:52;97934.94;;;-2.01;91.54
60479;BME280;46321;48.398;11.754;2023-02-15T08:53:17;97928.59;;;-1.94;91.65
60479;BME280;46321;48.398;11.754;2023-02-15T08:55:46;97923.16;;;-1.88;91.46
60479;BME280;46321;48.398;11.754;2023-02-15T08:58:12;97929.72;;;-1.79;91.64
60479;BME280;46321;48.398;11.754;2023-02-15T09:00:37;97926.53;;;-1.86;91.53
60479;BME280;46321;48.398;11.754;2023-02-15T09:03:02;97928.00;;;-1.78;91.80
60479;BME280;46321;48.398;11.754;2023-02-15T09:05:28;97934.28;;;-1.84;91.33
60479;BME280;46321;48.398;11.754;2023-02-15T09:07:53;97938.44;;;-1.80;91.38
60479;BME280;46321;48.398;11.754;2023-02-15T09:10:18;97932.75;;;-1.90;91.53
60479;BME280;46321;48.398;11.754;2023-02-15T09:12:44;97932.50;;;-1.84;91.75
60479;BME280;46321;48.398;11.754;2023-02-15T09:15:10;97921.66;;;-1.71;91.47
60479;BME280;46321;48.398;11.754;2023-02-15T09:17:36;97927.38;;;-1.63;91.38
60479;BME280;46321;48.398;11.754;2023-02-15T09:20:01;97937.38;;;-1.53;91.28
60479;BME280;46321;48.398;11.754;2023-02-15T09:22:26;97934.53;;;-1.47;91.06
60479;BME280;46321;48.398;11.754;2023-02-15T09:24:51;97937.13;;;-1.47;90.81
60479;BME280;46321;48.398;11.754;2023-02-15T09:27:17;97933.31;;;-1.38;90.72
60479;BME280;46321;48.398;11.754;2023-02-15T09:29:42;97935.03;;;-1.39;90.40
60479;BME280;46321;48.398;11.754;2023-02-15T09:32:07;97923.75;;;-1.38;90.48
60479;BME280;46321;48.398;11.754;2023-02-15T09:34:33;97933.00;;;-1.30;90.12
60479;BME280;46321;48.398;11.754;2023-02-15T09:36:58;97933.81;;;-1.30;90.11
60479;BME280;46321;48.398;11.754;2023-02-15T09:39:25;97939.09;;;-1.31;90.16
60479;BME280;46321;48.398;11.754;2023-02-15T09:41:59;97929.97;;;-1.21;89.85
60479;BME280;46321;48.398;11.754;2023-02-15T09:47:46;97930.31;;;-1.08;89.44
60479;BME280;46321;48.398;11.754;2023-02-15T09:50:58;97931.56;;;-1.38;90.10
60479;BME280;46321;48.398;11.754;2023-02-15T09:53:36;97934.34;;;-1.21;89.37
60479;BME280;46321;48.398;11.754;2023-02-15T09:56:15;97931.28;;;-1.10;89.00
60479;BME280;46321;48.398;11.754;2023-02-15T09:58:53;97934.28;;;-0.99;89.03
60479;BME280;46321;48.398;11.754;2023-02-15T10:04:29;97921.50;;;-0.84;88.57
60479;BME280;46321;48.398;11.754;2023-02-15T10:07:09;97924.19;;;-0.86;88.50
60479;BME280;46321;48.398;11.754;2023-02-15T10:13:09;97926.81;;;-0.87;88.44
60479;BME280;46321;48.398;11.754;2023-02-15T10:16:14;97927.66;;;-1.06;88.72
60479;BME280;46321;48.398;11.754;2023-02-15T10:22:07;97933.13;;;-1.12;89.24
60479;BME280;46321;48.398;11.754;2023-02-15T10:27:20;97928.66;;;-0.89;88.21
60479;BME280;46321;48.398;11.754;2023-02-15T10:29:55;97929.81;;;-0.76;87.92
60479;BME280;46321;48.398;11.754;2023-02-15T10:32:27;97918.78;;;-0.62;88.04
60479;BME280;46321;48.398;11.754;2023-02-15T10:35:17;97918.47;;;-0.54;87.74
60479;BME280;46321;48.398;11.754;2023-02-15T10:38:06;97914.34;;;-0.40;87.91
60479;BME280;46321;48.398;11.754;2023-02-15T10:41:01;97905.44;;;-0.35;87.55
60479;BME280;46321;48.398;11.754;2023-02-15T10:49:50;97909.91;;;-0.19;86.64
60479;BME280;46321;48.398;11.754;2023-02-15T10:52:21;97916.31;;;-0.26;86.25
60479;BME280;46321;48.398;11.754;2023-02-15T11:06:39;97876.97;;;-0.01;86.50
60479;BME280;46321;48.398;11.754;2023-02-15T11:09:10;97879.47;;;0.01;86.71
60479;BME280;46321;48.398;11.754;2023-02-15T11:11:39;97878.28;;;0.08;86.12
60479;BME280;46321;48.398;11.754;2023-02-15T11:17:14;97870.91;;;-0.01;85.73
60479;BME280;46321;48.398;11.754;2023-02-15T11:19:50;97861.16;;;-0.15;86.93
60479;BME280;46321;48.398;11.754;2023-02-15T11:22:19;97866.03;;;-0.27;87.14
60479;BME280;46321;48.398;11.754;2023-02-15T11:24:45;97862.97;;;-0.17;87.20
60479;BME280;46321;48.398;11.754;2023-02-15T11:27:21;97853.66;;;-0.04;86.84
60479;BME280;46321;48.398;11.754;2023-02-15T11:29:54;97857.28;;;0.11;86.75
60479;BME280;46321;48.398;11.754;2023-02-15T11:32:35;97842.81;;;0.24;86.89
60479;BME280;46321;48.398;11.754;2023-02-15T11:37:54;97836.69;;;0.25;86.36
60479;BME280;46321;48.398;11.754;2023-02-15T11:40:23;97828.34;;;0.36;85.90
60479;BME280;46321;48.398;11.754;2023-02-15T11:42:51;97828.69;;;0.45;85.73
60479;BME280;46321;48.398;11.754;2023-02-15T11:45:26;97833.59;;;0.52;86.06
60479;BME280;46321;48.398;11.754;2023-02-15T11:47:53;97830.16;;;0.51;86.05
60479;BME280;46321;48.398;11.754;2023-02-15T11:50:29;97826.19;;;0.44;85.88
60479;BME280;46321;48.398;11.754;2023-02-15T11:52:59;97826.81;;;0.49;85.85
60479;BME280;46321;48.398;11.754;2023-02-15T11:55:27;97822.19;;;0.54;85.87
60479;BME280;46321;48.398;11.754;2023-02-15T11:58:04;97814.34;;;0.54;85.35
60479;BME280;46321;48.398;11.754;2023-02-15T12:00:39;97811.69;;;0.56;85.54
60479;BME280;46321;48.398;11.754;2023-02-15T12:03:15;97812.13;;;0.64;85.67
60479;BME280;46321;48.398;11.754;2023-02-15T12:05:45;97811.59;;;0.57;85.92
60479;BME280;46321;48.398;11.754;2023-02-15T12:08:19;97810.47;;;0.28;86.74
60479;BME280;46321;48.398;11.754;2023-02-15T12:10:57;97801.75;;;0.29;86.90
60479;BME280;46321;48.398;11.754;2023-02-15T12:13:23;97794.81;;;0.45;86.13
60479;BME280;46321;48.398;11.754;2023-02-15T12:15:51;97796.66;;;0.43;86.21
60479;BME280;46321;48.398;11.754;2023-02-15T12:18:33;97793.84;;;0.30;86.10
60479;BME280;46321;48.398;11.754;2023-02-15T12:21:04;97789.78;;;0.42;85.81
60479;BME280;46321;48.398;11.754;2023-02-15T12:23:31;97792.94;;;0.49;85.37
60479;BME280;46321;48.398;11.754;2023-02-15T12:25:57;97783.41;;;0.48;86.18
60479;BME280;46321;48.398;11.754;2023-02-15T12:30:51;97790.94;;;0.71;85.57
60479;BME280;46321;48.398;11.754;2023-02-15T12:33:43;97780.41;;;0.56;85.93
60479;BME280;46321;48.398;11.754;2023-02-15T12:36:29;97787.91;;;0.62;86.58
60479;BME280;46321;48.398;11.754;2023-02-15T12:41:32;97785.81;;;0.69;86.48
60479;BME280;46321;48.398;11.754;2023-02-15T12:44:16;97773.28;;;0.60;86.27
60479;BME280;46321;48.398;11.754;2023-02-15T12:49:21;97781.41;;;0.87;85.29
60479;BME280;46321;48.398;11.754;2023-02-15T12:51:54;97778.38;;;0.95;85.28
60479;BME280;46321;48.398;11.754;2023-02-15T12:54:33;97775.91;;;0.92;84.89
60479;BME280;46321;48.398;11.754;2023-02-15T12:57:13;97769.63;;;0.96;85.16
60479;BME280;46321;48.398;11.754;2023-02-15T12:59:49;97750.63;;;1.10;84.76
60479;BME280;46321;48.398;11.754;2023-02-15T13:02:22;97760.38;;;1.23;84.72
60479;BME280;46321;48.398;11.754;2023-02-15T13:04:49;97760.13;;;1.28;84.79
60479;BME280;46321;48.398;11.754;2023-02-15T13:07:15;97751.88;;;1.35;84.79
60479;BME280;46321;48.398;11.754;2023-02-15T13:09:40;97757.84;;;1.37;84.65
60479;BME280;46321;48.398;11.754;2023-02-15T13:12:21;97746.91;;;1.14;84.32
60479;BME280;46321;48.398;11.754;2023-02-15T13:14:50;97747.25;;;1.08;84.15
60479;BME280;46321;48.398;11.754;2023-02-15T13:17:25;97745.91;;;1.01;84.98
60479;BME280;46321;48.398;11.754;2023-02-15T13:19:57;97740.38;;;1.07;84.39
60479;BME280;46321;48.398;11.754;2023-02-15T13:22:33;97736.47;;;1.14;84.65
60479;BME280;46321;48.398;11.754;2023-02-15T13:25:04;97734.66;;;1.00;84.91
60479;BME280;46321;48.398;11.754;2023-02-15T13:27:41;97730.25;;;1.01;85.54
60479;BME280;46321;48.398;11.754;2023-02-15T13:30:22;97724.97;;;0.86;85.68
60479;BME280;46321;48.398;11.754;2023-02-15T13:32:49;97721.50;;;1.02;85.34
60479;BME280;46321;48.398;11.754;2023-02-15T13:35:17;97723.53;;;0.97;85.68
60479;BME280;46321;48.398;11.754;2023-02-15T13:40:36;97735.47;;;0.85;85.32
60479;BME280;46321;48.398;11.754;2023-02-15T13:43:05;97722.41;;;1.01;85.17
60479;BME280;46321;48.398;11.754;2023-02-15T13:48:51;97730.94;;;0.88;85.97
60479;BME280;46321;48.398;11.754;2023-02-15T13:51:22;97728.50;;;1.01;86.10
60479;BME280;46321;48.398;11.754;2023-02-15T13:56:48;97729.75;;;1.10;85.51
60479;BME280;46321;48.398;11.754;2023-02-15T13:59:47;97736.22;;;1.19;85.07
60479;BME280;46321;48.398;11.754;2023-02-15T14:05:05;97728.53;;;1.32;85.16
60479;BME280;46321;48.398;11.754;2023-02-15T14:08:08;97721.50;;;1.34;84.82
60479;BME280;46321;48.398;11.754;2023-02-15T14:13:38;97709.50;;;1.46;84.21
60479;BME280;46321;48.398;11.754;2023-02-15T14:19:24;97694.88;;;1.44;83.55
60479;BME280;46321;48.398;11.754;2023-02-15T14:22:05;97700.28;;;1.41;83.48
60479;BME280;46321;48.398;11.754;2023-02-15T14:27:48;97696.16;;;1.36;84.74
60479;BME280;46321;48.398;11.754;2023-02-15T14:30:20;97696.75;;;1.25;85.53
60479;BME280;46321;48.398;11.754;2023-02-15T14:32:49;97690.25;;;1.33;84.62